createdAt,value
2018-08-28T00:01:44.342Z,74
2018-08-28T00:06:44.198Z,74.2
2018-08-28T00:11:44.250Z,73.1
2018-08-28T00:16:44.283Z,73.1
2018-08-28T00:21:44.315Z,72.6
2018-08-28T00:26:44.259Z,73.3
2018-08-28T00:31:44.041Z,70.9
2018-08-28T00:36:44.924Z,70.4
2018-08-28T00:41:44.663Z,69.8
2018-08-28T00:46:58.461Z,69.6
2018-08-28T00:51:58.330Z,69
2018-08-28T00:56:58.320Z,68.8
2018-08-28T01:01:58.300Z,68.1
2018-08-28T01:06:58.145Z,72.7
2018-08-28T01:11:58.151Z,73.5
2018-08-28T01:16:58.312Z,72.9
2018-08-28T01:21:58.138Z,73.3
2018-08-28T01:26:58.151Z,72.4
2018-08-28T01:31:58.362Z,72
2018-08-28T01:36:58.252Z,75.1
2018-08-28T01:41:58.367Z,77
2018-08-28T01:46:58.882Z,77.2
2018-08-28T01:51:58.721Z,76.9
2018-08-28T01:57:11.334Z,77.2
2018-08-28T02:02:11.198Z,76.7
2018-08-28T02:07:11.060Z,77.2
2018-08-28T02:12:11.333Z,76
2018-08-28T02:17:11.190Z,76.2
2018-08-28T02:22:11.245Z,76.6
2018-08-28T02:27:11.279Z,77
2018-08-28T02:32:11.740Z,77.4
2018-08-28T02:37:11.659Z,76.7
2018-08-28T02:42:24.038Z,76.9
2018-08-28T02:47:23.770Z,77.2
2018-08-28T02:52:23.798Z,78.9
2018-08-28T02:57:23.982Z,77.9
2018-08-28T03:02:24.007Z,79.7
2018-08-28T03:07:23.811Z,79
2018-08-28T03:12:23.799Z,81.5
2018-08-28T03:17:23.784Z,82.1
2018-08-28T03:22:23.951Z,82.8
2018-08-28T03:27:23.791Z,81.6
2018-08-28T03:32:23.798Z,81.8
2018-08-28T03:37:23.936Z,83.1
2018-08-28T03:42:24.215Z,83.1
2018-08-28T03:47:24.099Z,83.8
2018-08-28T03:52:36.906Z,83.2
2018-08-28T03:57:36.875Z,82.9
2018-08-28T04:02:36.644Z,84.5
2018-08-28T04:07:36.730Z,83.6
2018-08-28T04:12:36.653Z,84.7
2018-08-28T04:17:36.797Z,85.5
2018-08-28T04:22:36.965Z,84.5
2018-08-28T04:27:39.049Z,85.5
2018-08-28T04:32:38.799Z,86.6
2018-08-28T04:37:51.801Z,86.8
2018-08-28T04:42:51.638Z,85.3
2018-08-28T04:47:51.648Z,86.9
2018-08-28T04:52:53.641Z,85
2018-08-28T04:57:51.697Z,82.2
2018-08-28T05:02:51.532Z,81
2018-08-28T05:07:51.698Z,80.2
2018-08-28T05:12:51.558Z,80.7
2018-08-28T05:17:51.554Z,79.9
2018-08-28T05:22:52.007Z,80.1
2018-08-28T05:27:51.682Z,79.9
2018-08-28T05:32:51.847Z,79
2018-08-28T05:37:52.059Z,79.3
2018-08-28T05:42:51.945Z,77.9
2018-08-28T05:48:07.432Z,76.9
2018-08-28T05:53:07.350Z,77.6
2018-08-28T05:58:07.125Z,75.5
2018-08-28T06:03:07.571Z,74.8
2018-08-28T06:08:07.369Z,73.5
2018-08-28T06:13:07.192Z,73.3
2018-08-28T06:18:07.319Z,73.5
2018-08-28T06:23:10.160Z,72.8
2018-08-28T06:28:09.699Z,72
2018-08-28T06:33:22.577Z,71.2
2018-08-28T06:38:22.515Z,70
2018-08-28T06:43:22.552Z,70
2018-08-28T06:48:22.488Z,68.4
2018-08-28T06:53:22.319Z,66.4
2018-08-28T06:58:22.535Z,66.1
2018-08-28T07:03:22.467Z,66.1
2018-08-28T07:08:23.151Z,65.2
2018-08-28T07:13:23.065Z,64.3
2018-08-28T07:18:35.458Z,63.5
2018-08-28T07:23:35.221Z,62.3
2018-08-28T07:28:35.267Z,61.2
2018-08-28T07:33:35.155Z,61.7
2018-08-28T07:38:35.193Z,59.7
2018-08-28T07:43:35.067Z,59
2018-08-28T07:48:35.025Z,58.7
2018-08-28T07:53:36.939Z,59
2018-08-28T07:58:36.788Z,58.1
2018-08-28T08:03:37.152Z,56.6
2018-08-28T08:08:39.526Z,56.5
2018-08-28T08:13:39.432Z,55.6
2018-08-28T08:18:39.212Z,55.1
2018-08-28T08:23:39.254Z,55.9
2018-08-28T08:28:39.433Z,53.3
2018-08-28T08:33:39.357Z,54.3
2018-08-28T08:38:39.255Z,54.8
2018-08-28T08:43:40.406Z,53.5
2018-08-28T08:48:40.227Z,52.6
2018-08-28T08:53:52.998Z,51.3
2018-08-28T08:58:52.732Z,53.2
2018-08-28T09:03:52.867Z,51.7
2018-08-28T09:08:52.918Z,51
2018-08-28T09:13:52.990Z,50.7
2018-08-28T09:18:53.000Z,50.1
2018-08-28T09:23:52.912Z,48.2
2018-08-28T09:28:53.110Z,51.3
2018-08-28T09:33:53.228Z,50.7
2018-08-28T09:39:05.418Z,48
2018-08-28T09:44:05.335Z,47.1
2018-08-28T09:49:05.187Z,49.1
2018-08-28T09:54:05.349Z,47.2
2018-08-28T09:59:05.384Z,48.2
2018-08-28T10:04:05.426Z,46.3
2018-08-28T10:09:05.342Z,48.2
2018-08-28T10:14:06.077Z,46.4
2018-08-28T10:19:05.778Z,46.5
2018-08-28T10:24:18.348Z,46.7
2018-08-28T10:29:18.205Z,44.5
2018-08-28T10:34:18.311Z,45.7
2018-08-28T10:39:18.239Z,46.4
2018-08-28T10:44:18.258Z,45.2
2018-08-28T10:49:18.065Z,45.4
2018-08-28T10:54:18.387Z,45.9
2018-08-28T10:59:18.238Z,45.9
2018-08-28T11:04:18.281Z,45.4
2018-08-28T11:09:18.078Z,44.6
2018-08-28T11:14:18.242Z,44.7
2018-08-28T11:19:18.282Z,44.8
2018-08-28T11:24:18.177Z,43.9
2018-08-28T11:29:18.326Z,44.9
2018-08-28T11:34:31.941Z,45
2018-08-28T11:39:31.860Z,43.7
2018-08-28T11:44:31.934Z,43.8
2018-08-28T11:49:31.921Z,43.7
2018-08-28T11:54:31.849Z,44.7
2018-08-28T11:59:31.907Z,43.9
2018-08-28T12:04:31.700Z,43.7
2018-08-28T12:09:32.740Z,42.7
2018-08-28T12:14:32.482Z,43.3
2018-08-28T12:19:45.032Z,43.1
2018-08-28T12:24:44.971Z,42.2
2018-08-28T12:29:45.186Z,41.7
2018-08-28T12:34:44.793Z,41.7
2018-08-28T12:39:44.988Z,41.9
2018-08-28T12:44:44.989Z,42.8
2018-08-28T12:49:44.928Z,41.1
2018-08-28T12:54:49.291Z,41.8
2018-08-28T12:59:48.603Z,41.7
2018-08-28T13:05:01.607Z,42
2018-08-28T13:10:01.563Z,42.5
2018-08-28T13:15:01.332Z,42.1
2018-08-28T13:20:01.558Z,41.5
2018-08-28T13:25:01.355Z,42.1
2018-08-28T13:30:01.617Z,42.5
2018-08-28T13:35:01.612Z,43
2018-08-28T13:40:03.645Z,42
2018-08-28T13:45:03.768Z,41.7
2018-08-28T13:50:14.568Z,43.9
2018-08-28T13:55:14.393Z,43.2
2018-08-28T14:00:14.541Z,43.6
2018-08-28T14:05:14.421Z,44.7
2018-08-28T14:10:14.689Z,45.1
2018-08-28T14:15:14.475Z,45.1
2018-08-28T14:20:14.271Z,45.3
2018-08-28T14:25:15.282Z,44.4
2018-08-28T14:30:15.241Z,45.1
2018-08-28T14:35:29.314Z,44.2
2018-08-28T14:40:28.833Z,45.3
2018-08-28T14:45:28.816Z,44.3
2018-08-28T14:50:29.464Z,43.9
2018-08-28T14:55:28.967Z,45.1
2018-08-28T15:00:28.812Z,45.1
2018-08-28T15:05:28.822Z,44.5
2018-08-28T15:10:29.673Z,45.2
2018-08-28T15:15:29.405Z,44.9
2018-08-28T15:20:41.491Z,45.1
2018-08-28T15:25:41.191Z,45.1
2018-08-28T15:30:41.208Z,44.4
2018-08-28T15:35:41.224Z,45.8
2018-08-28T15:40:41.463Z,45.8
2018-08-28T15:45:41.212Z,45.2
2018-08-28T15:50:41.418Z,44.5
2018-08-28T15:55:41.454Z,46.1
2018-08-28T16:00:41.210Z,46.1
2018-08-28T16:05:41.177Z,45
2018-08-28T16:10:41.538Z,46
2018-08-28T16:15:41.242Z,46.8
2018-08-28T16:20:41.733Z,47.1
2018-08-28T16:25:41.639Z,46.6
2018-08-28T16:30:53.880Z,45.8
2018-08-28T16:35:54.032Z,46.1
2018-08-28T16:40:53.848Z,46.5
2018-08-28T16:45:53.637Z,47.5
2018-08-28T16:50:53.589Z,48.8
2018-08-28T16:55:53.760Z,48.9
2018-08-28T17:00:53.883Z,50
2018-08-28T17:05:56.216Z,49.9
2018-08-28T17:10:55.939Z,51.1
2018-08-28T17:16:08.941Z,51.7
2018-08-28T17:21:08.677Z,52.9
2018-08-28T17:26:08.593Z,53.4
2018-08-28T17:31:08.828Z,55.2
2018-08-28T17:36:08.696Z,56.2
2018-08-28T17:41:08.636Z,57.5
2018-08-28T17:46:08.768Z,58.9
2018-08-28T17:51:08.805Z,60.1
2018-08-28T17:56:08.669Z,59.8
2018-08-28T18:01:08.696Z,59.9
2018-08-28T18:06:08.673Z,60.9
2018-08-28T18:11:08.685Z,62.2
2018-08-28T18:16:10.261Z,63.8
2018-08-28T18:21:09.983Z,63.9
2018-08-28T18:26:23.215Z,66.3
2018-08-28T18:31:22.948Z,66.8
2018-08-28T18:36:22.989Z,68.6
2018-08-28T18:41:23.147Z,68.9
2018-08-28T18:46:23.186Z,69.6
2018-08-28T18:51:23.208Z,69.1
2018-08-28T18:56:23.193Z,70.3
2018-08-28T19:01:24.982Z,70.3
2018-08-28T19:06:24.715Z,72.4
2018-08-28T19:11:36.618Z,72.1
2018-08-28T19:16:36.359Z,72.2
2018-08-28T19:21:36.587Z,74.9
2018-08-28T19:26:36.318Z,73.6
2018-08-28T19:31:36.591Z,74.2
2018-08-28T19:36:36.571Z,73.3
2018-08-28T19:41:36.519Z,75.4
2018-08-28T19:46:36.561Z,75.9
2018-08-28T19:51:36.528Z,74.9
2018-08-28T19:56:36.777Z,75.9
2018-08-28T20:01:36.535Z,77.4
2018-08-28T20:06:36.559Z,77.7
2018-08-28T20:11:39.625Z,76.4
2018-08-28T20:16:39.354Z,78.5
2018-08-28T20:21:49.581Z,78.2
2018-08-28T20:26:48.410Z,77.9
2018-08-28T20:31:48.572Z,78.3
2018-08-28T20:36:48.288Z,79.7
2018-08-28T20:41:48.610Z,80.1
2018-08-28T20:46:48.575Z,80.1
2018-08-28T20:51:48.740Z,80.1
2018-08-28T21:01:48.792Z,80.8
2018-08-28T21:06:59.001Z,79.3
2018-08-28T21:11:51.661Z,81.5
2018-08-28T21:16:51.615Z,81.4
2018-08-28T21:21:51.636Z,81.4
2018-08-28T21:26:51.602Z,81.7
2018-08-28T21:31:51.619Z,82.8
2018-08-28T21:36:52.906Z,83.3
2018-08-28T21:41:51.642Z,83.2
2018-08-28T21:46:51.644Z,82.2
2018-08-28T21:51:51.649Z,83.1
2018-08-28T21:56:51.818Z,83.4
2018-08-28T22:01:51.644Z,83.9
2018-08-28T22:06:51.897Z,84.6
2018-08-28T22:11:51.657Z,85.3
2018-08-28T22:17:03.588Z,84.7
2018-08-28T22:22:03.325Z,86.8
2018-08-28T22:27:03.471Z,85.7
2018-08-28T22:32:03.358Z,86.1
2018-08-28T22:37:03.350Z,86.9
2018-08-28T22:42:03.347Z,86.3
2018-08-28T22:47:03.517Z,85.8
2018-08-28T22:52:05.715Z,87.1
2018-08-28T22:57:05.452Z,86.3
2018-08-28T23:02:18.396Z,86
2018-08-28T23:07:18.298Z,86.5
2018-08-28T23:12:18.325Z,85.7
2018-08-28T23:17:21.099Z,85.5
2018-08-28T23:22:18.301Z,86.6
2018-08-28T23:27:18.107Z,85.5
2018-08-28T23:32:18.256Z,85.9
2018-08-28T23:37:18.343Z,86.9
2018-08-28T23:42:18.336Z,85.4
2018-08-28T23:47:18.140Z,86.2
2018-08-28T23:52:18.147Z,85.5
2018-08-28T23:57:20.692Z,86.5
